sensor_id;sensor_type;location;lat;lon;timestamp;P1;durP1;ratioP1;P2;durP2;ratioP2
7985;SDS011;4038;42.612;23.066;2023-05-01T00:01:19;27.40;;;25.20;;
7985;SDS011;4038;42.612;23.066;2023-05-01T00:03:44;28.43;;;26.23;;
7985;SDS011;4038;42.612;23.066;2023-05-01T00:06:10;27.63;;;25.37;;
7985;SDS011;4038;42.612;23.066;2023-05-01T00:08:36;27.53;;;25.37;;
7985;SDS011;4038;42.612;23.066;2023-05-01T00:11:04;28.80;;;26.57;;
7985;SDS011;4038;42.612;23.066;2023-05-01T00:13:33;28.50;;;25.73;;
7985;SDS011;4038;42.612;23.066;2023-05-01T00:15:59;26.77;;;24.37;;
7985;SDS011;4038;42.612;23.066;2023-05-01T00:18:24;27.83;;;25.53;;
7985;SDS011;4038;42.612;23.066;2023-05-01T00:20:50;30.40;;;27.97;;
7985;SDS011;4038;42.612;23.066;2023-05-01T00:23:15;29.60;;;27.07;;
7985;SDS011;4038;42.612;23.066;2023-05-01T00:25:41;28.77;;;26.67;;
7985;SDS011;4038;42.612;23.066;2023-05-01T00:28:06;27.67;;;25.57;;
7985;SDS011;4038;42.612;23.066;2023-05-01T00:30:32;35.23;;;30.03;;
7985;SDS011;4038;42.612;23.066;2023-05-01T00:32:58;30.23;;;27.57;;
7985;SDS011;4038;42.612;23.066;2023-05-01T00:35:24;30.67;;;27.60;;
7985;SDS011;4038;42.612;23.066;2023-05-01T00:37:49;38.40;;;30.07;;
7985;SDS011;4038;42.612;23.066;2023-05-01T00:40:15;30.60;;;27.60;;
7985;SDS011;4038;42.612;23.066;2023-05-01T00:42:40;29.70;;;26.80;;
7985;SDS011;4038;42.612;23.066;2023-05-01T00:45:06;28.53;;;26.20;;
7985;SDS011;4038;42.612;23.066;2023-05-01T00:47:34;28.67;;;25.97;;
7985;SDS011;4038;42.612;23.066;2023-05-01T00:50:00;30.47;;;27.47;;
7985;SDS011;4038;42.612;23.066;2023-05-01T00:52:26;29.17;;;26.57;;
7985;SDS011;4038;42.612;23.066;2023-05-01T00:54:52;31.93;;;28.73;;
7985;SDS011;4038;42.612;23.066;2023-05-01T00:57:19;32.23;;;28.60;;
7985;SDS011;4038;42.612;23.066;2023-05-01T00:59:45;35.97;;;29.17;;
7985;SDS011;4038;42.612;23.066;2023-05-01T01:02:11;32.97;;;29.60;;
7985;SDS011;4038;42.612;23.066;2023-05-01T01:04:39;31.40;;;28.10;;
7985;SDS011;4038;42.612;23.066;2023-05-01T01:12:16;30.83;;;27.90;;
7985;SDS011;4038;42.612;23.066;2023-05-01T01:15:18;28.93;;;26.60;;
7985;SDS011;4038;42.612;23.066;2023-05-01T01:20:54;30.90;;;27.77;;
7985;SDS011;4038;42.612;23.066;2023-05-01T01:26:12;30.50;;;27.33;;
7985;SDS011;4038;42.612;23.066;2023-05-01T01:42:08;26.60;;;24.33;;
7985;SDS011;4038;42.612;23.066;2023-05-01T01:44:38;26.90;;;24.60;;
7985;SDS011;4038;42.612;23.066;2023-05-01T01:47:09;27.33;;;25.03;;
7985;SDS011;4038;42.612;23.066;2023-05-01T01:49:37;26.47;;;24.10;;
7985;SDS011;4038;42.612;23.066;2023-05-01T01:52:06;27.83;;;25.13;;
7985;SDS011;4038;42.612;23.066;2023-05-01T01:54:36;28.37;;;25.47;;
7985;SDS011;4038;42.612;23.066;2023-05-01T01:57:04;32.33;;;27.80;;
7985;SDS011;4038;42.612;23.066;2023-05-01T01:59:33;34.27;;;30.57;;
7985;SDS011;4038;42.612;23.066;2023-05-01T02:02:02;29.67;;;26.77;;
7985;SDS011;4038;42.612;23.066;2023-05-01T02:04:29;26.77;;;24.40;;
7985;SDS011;4038;42.612;23.066;2023-05-01T02:06:56;26.90;;;24.43;;
7985;SDS011;4038;42.612;23.066;2023-05-01T02:09:23;26.17;;;23.90;;
7985;SDS011;4038;42.612;23.066;2023-05-01T02:11:50;27.70;;;25.30;;
7985;SDS011;4038;42.612;23.066;2023-05-01T02:14:18;26.87;;;24.27;;
7985;SDS011;4038;42.612;23.066;2023-05-01T02:16:45;25.87;;;23.87;;
7985;SDS011;4038;42.612;23.066;2023-05-01T02:19:13;26.93;;;24.07;;
7985;SDS011;4038;42.612;23.066;2023-05-01T02:21:39;26.30;;;24.07;;
7985;SDS011;4038;42.612;23.066;2023-05-01T02:24:06;25.70;;;23.57;;
7985;SDS011;4038;42.612;23.066;2023-05-01T02:26:37;25.43;;;23.27;;
7985;SDS011;4038;42.612;23.066;2023-05-01T02:29:09;26.27;;;23.70;;
7985;SDS011;4038;42.612;23.066;2023-05-01T02:31:35;25.83;;;23.50;;
7985;SDS011;4038;42.612;23.066;2023-05-01T02:34:00;26.20;;;23.90;;
7985;SDS011;4038;42.612;23.066;2023-05-01T02:36:26;27.23;;;24.80;;
7985;SDS011;4038;42.612;23.066;2023-05-01T02:38:52;27.27;;;24.87;;
7985;SDS011;4038;42.612;23.066;2023-05-01T02:41:19;26.43;;;24.13;;
7985;SDS011;4038;42.612;23.066;2023-05-01T02:43:46;27.40;;;25.10;;
7985;SDS011;4038;42.612;23.066;2023-05-01T02:46:17;27.00;;;24.83;;
7985;SDS011;4038;42.612;23.066;2023-05-01T02:48:45;25.93;;;23.70;;
7985;SDS011;4038;42.612;23.066;2023-05-01T02:51:12;27.27;;;25.03;;
7985;SDS011;4038;42.612;23.066;2023-05-01T02:53:38;27.23;;;25.13;;
7985;SDS011;4038;42.612;23.066;2023-05-01T02:56:04;28.97;;;26.47;;
7985;SDS011;4038;42.612;23.066;2023-05-01T02:58:32;28.37;;;25.97;;
7985;SDS011;4038;42.612;23.066;2023-05-01T03:00:58;28.17;;;25.80;;
7985;SDS011;4038;42.612;23.066;2023-05-01T03:03:23;29.00;;;26.43;;
7985;SDS011;4038;42.612;23.066;2023-05-01T03:05:49;28.40;;;25.87;;
7985;SDS011;4038;42.612;23.066;2023-05-01T03:08:15;29.17;;;26.53;;
7985;SDS011;4038;42.612;23.066;2023-05-01T03:10:41;27.73;;;25.50;;
7985;SDS011;4038;42.612;23.066;2023-05-01T03:13:07;28.17;;;25.87;;
7985;SDS011;4038;42.612;23.066;2023-05-01T03:15:34;26.60;;;24.50;;
7985;SDS011;4038;42.612;23.066;2023-05-01T03:17:59;26.37;;;24.07;;
7985;SDS011;4038;42.612;23.066;2023-05-01T03:20:25;26.03;;;23.93;;
7985;SDS011;4038;42.612;23.066;2023-05-01T03:22:50;26.10;;;23.90;;
7985;SDS011;4038;42.612;23.066;2023-05-01T03:25:16;26.53;;;24.50;;
7985;SDS011;4038;42.612;23.066;2023-05-01T03:27:41;25.97;;;23.93;;
7985;SDS011;4038;42.612;23.066;2023-05-01T03:30:07;25.67;;;23.57;;
7985;SDS011;4038;42.612;23.066;2023-05-01T03:32:34;25.73;;;23.47;;
7985;SDS011;4038;42.612;23.066;2023-05-01T03:34:59;26.40;;;24.20;;
7985;SDS011;4038;42.612;23.066;2023-05-01T03:37:25;26.07;;;23.90;;
7985;SDS011;4038;42.612;23.066;2023-05-01T03:39:50;29.23;;;26.50;;
7985;SDS011;4038;42.612;23.066;2023-05-01T03:42:16;32.17;;;28.77;;
7985;SDS011;4038;42.612;23.066;2023-05-01T03:44:41;37.97;;;33.50;;
7985;SDS011;4038;42.612;23.066;2023-05-01T03:47:07;35.63;;;31.17;;
7985;SDS011;4038;42.612;23.066;2023-05-01T03:49:32;33.70;;;29.47;;
7985;SDS011;4038;42.612;23.066;2023-05-01T03:51:57;32.60;;;29.10;;
7985;SDS011;4038;42.612;23.066;2023-05-01T03:54:23;33.07;;;29.20;;
7985;SDS011;4038;42.612;23.066;2023-05-01T03:56:49;34.80;;;29.47;;
7985;SDS011;4038;42.612;23.066;2023-05-01T03:59:14;29.33;;;26.23;;
7985;SDS011;4038;42.612;23.066;2023-05-01T04:01:40;26.07;;;23.73;;
7985;SDS011;4038;42.612;23.066;2023-05-01T04:04:05;27.30;;;24.60;;
7985;SDS011;4038;42.612;23.066;2023-05-01T04:06:32;28.23;;;25.93;;
7985;SDS011;4038;42.612;23.066;2023-05-01T04:08:57;29.23;;;26.73;;
7985;SDS011;4038;42.612;23.066;2023-05-01T04:11:22;27.33;;;25.03;;
7985;SDS011;4038;42.612;23.066;2023-05-01T04:13:48;26.90;;;24.70;;
7985;SDS011;4038;42.612;23.066;2023-05-01T04:16:13;26.37;;;24.10;;
7985;SDS011;4038;42.612;23.066;2023-05-01T04:18:39;24.37;;;22.37;;
7985;SDS011;4038;42.612;23.066;2023-05-01T04:21:04;27.17;;;24.60;;
7985;SDS011;4038;42.612;23.066;2023-05-01T04:23:29;27.07;;;24.77;;
7985;SDS011;4038;42.612;23.066;2023-05-01T04:25:55;25.50;;;23.60;;
7985;SDS011;4038;42.612;23.066;2023-05-01T04:28:20;25.97;;;23.97;;
7985;SDS011;4038;42.612;23.066;2023-05-01T04:30:46;25.87;;;23.53;;
7985;SDS011;4038;42.612;23.066;2023-05-01T04:33:11;25.07;;;23.07;;
7985;SDS011;4038;42.612;23.066;2023-05-01T04:35:37;27.40;;;24.17;;
7985;SDS011;4038;42.612;23.066;2023-05-01T04:38:04;32.07;;;28.73;;
7985;SDS011;4038;42.612;23.066;2023-05-01T04:40:30;30.47;;;27.57;;
7985;SDS011;4038;42.612;23.066;2023-05-01T04:42:55;30.73;;;27.73;;
7985;SDS011;4038;42.612;23.066;2023-05-01T04:45:21;28.10;;;25.27;;
7985;SDS011;4038;42.612;23.066;2023-05-01T04:47:46;27.60;;;25.00;;
7985;SDS011;4038;42.612;23.066;2023-05-01T04:50:11;29.27;;;26.27;;
7985;SDS011;4038;42.612;23.066;2023-05-01T04:52:37;29.97;;;26.10;;
7985;SDS011;4038;42.612;23.066;2023-05-01T04:55:02;30.60;;;27.00;;
7985;SDS011;4038;42.612;23.066;2023-05-01T04:57:28;30.33;;;26.20;;
7985;SDS011;4038;42.612;23.066;2023-05-01T04:59:54;30.63;;;27.37;;
7985;SDS011;4038;42.612;23.066;2023-05-01T05:02:19;34.27;;;27.00;;
7985;SDS011;4038;42.612;23.066;2023-05-01T05:04:44;36.37;;;27.87;;
7985;SDS011;4038;42.612;23.066;2023-05-01T05:07:10;32.10;;;28.90;;
7985;SDS011;4038;42.612;23.066;2023-05-01T05:09:35;32.97;;;29.15;;
7985;SDS011;4038;42.612;23.066;2023-05-01T05:12:01;44.37;;;29.53;;
7985;SDS011;4038;42.612;23.066;2023-05-01T05:14:28;35.27;;;27.57;;
7985;SDS011;4038;42.612;23.066;2023-05-01T05:16:54;38.58;;;26.60;;
7985;SDS011;4038;42.612;23.066;2023-05-01T05:19:19;28.40;;;25.60;;
7985;SDS011;4038;42.612;23.066;2023-05-01T05:21:44;30.15;;;26.67;;
7985;SDS011;4038;42.612;23.066;2023-05-01T05:24:10;29.10;;;26.00;;
7985;SDS011;4038;42.612;23.066;2023-05-01T05:26:35;36.22;;;26.67;;
7985;SDS011;4038;42.612;23.066;2023-05-01T05:29:02;29.77;;;25.92;;
7985;SDS011;4038;42.612;23.066;2023-05-01T05:31:28;32.20;;;27.48;;
7985;SDS011;4038;42.612;23.066;2023-05-01T05:33:53;30.15;;;26.90;;
7985;SDS011;4038;42.612;23.066;2023-05-01T05:36:18;31.17;;;26.60;;
7985;SDS011;4038;42.612;23.066;2023-05-01T05:38:44;28.60;;;25.30;;
7985;SDS011;4038;42.612;23.066;2023-05-01T05:41:09;34.40;;;26.70;;
7985;SDS011;4038;42.612;23.066;2023-05-01T05:43:35;30.42;;;27.15;;
7985;SDS011;4038;42.612;23.066;2023-05-01T05:46:01;28.88;;;26.15;;
7985;SDS011;4038;42.612;23.066;2023-05-01T05:48:26;37.50;;;27.42;;
7985;SDS011;4038;42.612;23.066;2023-05-01T05:50:52;30.05;;;27.00;;
7985;SDS011;4038;42.612;23.066;2023-05-01T05:53:19;30.00;;;27.00;;
7985;SDS011;4038;42.612;23.066;2023-05-01T05:55:47;30.02;;;26.50;;
7985;SDS011;4038;42.612;23.066;2023-05-01T05:58:13;34.70;;;27.55;;
7985;SDS011;4038;42.612;23.066;2023-05-01T06:00:47;40.88;;;26.92;;
7985;SDS011;4038;42.612;23.066;2023-05-01T06:03:17;37.88;;;27.45;;
7985;SDS011;4038;42.612;23.066;2023-05-01T06:05:43;34.40;;;27.48;;
7985;SDS011;4038;42.612;23.066;2023-05-01T06:08:09;30.77;;;25.80;;
7985;SDS011;4038;42.612;23.066;2023-05-01T06:10:35;31.52;;;26.95;;
7985;SDS011;4038;42.612;23.066;2023-05-01T06:13:03;29.23;;;26.13;;
7985;SDS011;4038;42.612;23.066;2023-05-01T06:15:31;27.60;;;24.67;;
7985;SDS011;4038;42.612;23.066;2023-05-01T06:17:56;37.53;;;26.77;;
7985;SDS011;4038;42.612;23.066;2023-05-01T06:20:22;30.35;;;27.33;;
7985;SDS011;4038;42.612;23.066;2023-05-01T06:22:47;30.92;;;27.58;;
7985;SDS011;4038;42.612;23.066;2023-05-01T06:25:13;28.85;;;25.92;;
7985;SDS011;4038;42.612;23.066;2023-05-01T06:27:38;27.75;;;25.30;;
7985;SDS011;4038;42.612;23.066;2023-05-01T06:30:04;25.38;;;23.30;;
7985;SDS011;4038;42.612;23.066;2023-05-01T06:32:30;25.88;;;23.55;;
7985;SDS011;4038;42.612;23.066;2023-05-01T06:34:56;26.33;;;24.17;;
7985;SDS011;4038;42.612;23.066;2023-05-01T06:37:21;26.02;;;23.80;;
7985;SDS011;4038;42.612;23.066;2023-05-01T06:39:47;24.58;;;22.58;;
7985;SDS011;4038;42.612;23.066;2023-05-01T06:42:12;26.58;;;24.17;;
7985;SDS011;4038;42.612;23.066;2023-05-01T06:44:40;26.75;;;24.15;;
7985;SDS011;4038;42.612;23.066;2023-05-01T06:47:06;25.67;;;23.20;;
7985;SDS011;4038;42.612;23.066;2023-05-01T06:49:31;26.05;;;23.77;;
7985;SDS011;4038;42.612;23.066;2023-05-01T06:51:57;24.83;;;22.85;;
7985;SDS011;4038;42.612;23.066;2023-05-01T06:54:23;24.73;;;22.63;;
7985;SDS011;4038;42.612;23.066;2023-05-01T06:56:49;24.40;;;22.15;;
7985;SDS011;4038;42.612;23.066;2023-05-01T06:59:14;26.23;;;23.98;;
7985;SDS011;4038;42.612;23.066;2023-05-01T07:01:40;25.13;;;22.92;;
7985;SDS011;4038;42.612;23.066;2023-05-01T07:04:05;25.67;;;23.50;;
7985;SDS011;4038;42.612;23.066;2023-05-01T07:06:31;24.85;;;22.83;;
7985;SDS011;4038;42.612;23.066;2023-05-01T07:08:56;25.45;;;23.17;;
7985;SDS011;4038;42.612;23.066;2023-05-01T07:11:22;24.80;;;22.90;;
7985;SDS011;4038;42.612;23.066;2023-05-01T07:13:47;23.85;;;21.85;;
7985;SDS011;4038;42.612;23.066;2023-05-01T07:16:13;24.90;;;23.00;;
7985;SDS011;4038;42.612;23.066;2023-05-01T07:18:38;24.20;;;22.08;;
7985;SDS011;4038;42.612;23.066;2023-05-01T07:21:04;23.88;;;22.20;;
7985;SDS011;4038;42.612;23.066;2023-05-01T07:23:29;24.08;;;22.48;;
7985;SDS011;4038;42.612;23.066;2023-05-01T07:25:55;23.50;;;21.70;;
7985;SDS011;4038;42.612;23.066;2023-05-01T07:28:21;22.58;;;20.98;;
7985;SDS011;4038;42.612;23.066;2023-05-01T07:30:46;23.45;;;21.75;;
7985;SDS011;4038;42.612;23.066;2023-05-01T07:33:12;22.33;;;20.63;;
7985;SDS011;4038;42.612;23.066;2023-05-01T07:35:37;22.40;;;20.60;;
7985;SDS011;4038;42.612;23.066;2023-05-01T07:38:03;24.40;;;21.98;;
7985;SDS011;4038;42.612;23.066;2023-05-01T07:40:28;23.20;;;21.13;;
7985;SDS011;4038;42.612;23.066;2023-05-01T07:42:56;22.92;;;21.10;;
7985;SDS011;4038;42.612;23.066;2023-05-01T07:45:21;22.55;;;20.85;;
7985;SDS011;4038;42.612;23.066;2023-05-01T07:47:47;23.77;;;21.98;;
7985;SDS011;4038;42.612;23.066;2023-05-01T07:50:13;22.77;;;21.00;;
7985;SDS011;4038;42.612;23.066;2023-05-01T07:52:39;23.40;;;21.50;;
7985;SDS011;4038;42.612;23.066;2023-05-01T07:55:04;22.40;;;20.80;;
7985;SDS011;4038;42.612;23.066;2023-05-01T07:57:30;23.10;;;21.25;;
7985;SDS011;4038;42.612;23.066;2023-05-01T07:59:59;24.80;;;22.45;;
7985;SDS011;4038;42.612;23.066;2023-05-01T08:02:24;23.92;;;21.73;;
7985;SDS011;4038;42.612;23.066;2023-05-01T08:04:49;22.98;;;21.15;;
7985;SDS011;4038;42.612;23.066;2023-05-01T08:07:15;22.92;;;21.17;;
7985;SDS011;4038;42.612;23.066;2023-05-01T08:09:41;23.73;;;21.52;;
7985;SDS011;4038;42.612;23.066;2023-05-01T08:12:06;23.98;;;22.13;;
7985;SDS011;4038;42.612;23.066;2023-05-01T08:14:32;23.42;;;21.52;;
7985;SDS011;4038;42.612;23.066;2023-05-01T08:16:57;23.65;;;21.85;;
7985;SDS011;4038;42.612;23.066;2023-05-01T08:19:25;23.42;;;21.33;;
7985;SDS011;4038;42.612;23.066;2023-05-01T08:21:52;22.90;;;21.10;;
7985;SDS011;4038;42.612;23.066;2023-05-01T08:24:17;22.75;;;21.15;;
7985;SDS011;4038;42.612;23.066;2023-05-01T08:26:51;23.67;;;21.88;;
7985;SDS011;4038;42.612;23.066;2023-05-01T08:29:16;22.95;;;21.35;;
7985;SDS011;4038;42.612;23.066;2023-05-01T08:31:42;23.10;;;21.50;;
7985;SDS011;4038;42.612;23.066;2023-05-01T08:34:07;23.40;;;21.55;;
7985;SDS011;4038;42.612;23.066;2023-05-01T08:36:33;22.98;;;21.38;;
7985;SDS011;4038;42.612;23.066;2023-05-01T08:38:59;22.88;;;21.35;;
7985;SDS011;4038;42.612;23.066;2023-05-01T08:41:25;23.95;;;22.35;;
7985;SDS011;4038;42.612;23.066;2023-05-01T08:43:52;24.88;;;22.88;;
7985;SDS011;4038;42.612;23.066;2023-05-01T08:46:24;23.20;;;21.50;;
7985;SDS011;4038;42.612;23.066;2023-05-01T08:48:57;24.95;;;23.00;;
7985;SDS011;4038;42.612;23.066;2023-05-01T08:51:26;23.38;;;21.58;;
7985;SDS011;4038;42.612;23.066;2023-05-01T08:53:54;22.73;;;21.23;;
7985;SDS011;4038;42.612;23.066;2023-05-01T08:56:22;23.55;;;21.58;;
7985;SDS011;4038;42.612;23.066;2023-05-01T08:58:49;22.80;;;21.00;;
7985;SDS011;4038;42.612;23.066;2023-05-01T09:01:17;21.55;;;20.05;;
7985;SDS011;4038;42.612;23.066;2023-05-01T09:03:44;23.17;;;21.52;;
7985;SDS011;4038;42.612;23.066;2023-05-01T09:06:12;21.90;;;20.20;;
7985;SDS011;4038;42.612;23.066;2023-05-01T09:08:38;21.98;;;20.40;;
7985;SDS011;4038;42.612;23.066;2023-05-01T09:11:03;22.80;;;21.20;;
7985;SDS011;4038;42.612;23.066;2023-05-01T09:13:32;22.90;;;21.50;;
7985;SDS011;4038;42.612;23.066;2023-05-01T09:16:04;22.85;;;20.90;;
7985;SDS011;4038;42.612;23.066;2023-05-01T09:18:30;22.27;;;20.40;;
7985;SDS011;4038;42.612;23.066;2023-05-01T09:21:02;21.10;;;19.58;;
7985;SDS011;4038;42.612;23.066;2023-05-01T09:23:30;22.13;;;20.63;;
7985;SDS011;4038;42.612;23.066;2023-05-01T09:26:03;31.65;;;29.13;;
7985;SDS011;4038;42.612;23.066;2023-05-01T09:28:41;21.25;;;19.85;;
7985;SDS011;4038;42.612;23.066;2023-05-01T09:31:29;22.80;;;21.05;;
7985;SDS011;4038;42.612;23.066;2023-05-01T09:34:04;21.83;;;20.13;;
7985;SDS011;4038;42.612;23.066;2023-05-01T09:36:32;21.92;;;20.42;;
7985;SDS011;4038;42.612;23.066;2023-05-01T09:38:58;21.13;;;19.63;;
7985;SDS011;4038;42.612;23.066;2023-05-01T09:41:31;22.10;;;20.50;;
7985;SDS011;4038;42.612;23.066;2023-05-01T09:44:02;22.30;;;20.60;;
7985;SDS011;4038;42.612;23.066;2023-05-01T09:46:27;21.73;;;20.33;;
7985;SDS011;4038;42.612;23.066;2023-05-01T09:48:57;23.02;;;21.30;;
7985;SDS011;4038;42.612;23.066;2023-05-01T09:53:51;22.17;;;20.40;;
7985;SDS011;4038;42.612;23.066;2023-05-01T09:56:17;23.00;;;21.38;;
7985;SDS011;4038;42.612;23.066;2023-05-01T09:58:43;22.90;;;21.30;;
7985;SDS011;4038;42.612;23.066;2023-05-01T10:01:09;23.02;;;21.40;;
7985;SDS011;4038;42.612;23.066;2023-05-01T10:03:34;22.55;;;20.95;;
7985;SDS011;4038;42.612;23.066;2023-05-01T10:06:00;22.92;;;21.33;;
7985;SDS011;4038;42.612;23.066;2023-05-01T10:08:43;23.00;;;21.30;;
7985;SDS011;4038;42.612;23.066;2023-05-01T10:11:10;22.40;;;20.90;;
7985;SDS011;4038;42.612;23.066;2023-05-01T10:13:39;23.50;;;21.70;;
7985;SDS011;4038;42.612;23.066;2023-05-01T10:16:05;22.45;;;20.60;;
7985;SDS011;4038;42.612;23.066;2023-05-01T10:18:35;23.00;;;21.13;;
7985;SDS011;4038;42.612;23.066;2023-05-01T10:21:02;23.15;;;21.55;;
7985;SDS011;4038;42.612;23.066;2023-05-01T10:23:29;23.75;;;22.05;;
7985;SDS011;4038;42.612;23.066;2023-05-01T10:25:59;22.88;;;21.27;;
7985;SDS011;4038;42.612;23.066;2023-05-01T10:28:26;22.50;;;20.65;;
7985;SDS011;4038;42.612;23.066;2023-05-01T10:30:53;22.92;;;21.25;;
7985;SDS011;4038;42.612;23.066;2023-05-01T10:33:20;22.00;;;20.50;;
7985;SDS011;4038;42.612;23.066;2023-05-01T10:35:54;22.30;;;20.50;;
7985;SDS011;4038;42.612;23.066;2023-05-01T10:38:25;22.23;;;20.63;;
7985;SDS011;4038;42.612;23.066;2023-05-01T10:40:57;22.15;;;20.45;;
7985;SDS011;4038;42.612;23.066;2023-05-01T10:43:27;21.35;;;19.90;;
7985;SDS011;4038;42.612;23.066;2023-05-01T10:46:36;22.58;;;20.98;;
7985;SDS011;4038;42.612;23.066;2023-05-01T10:51:12;21.90;;;20.40;;
7985;SDS011;4038;42.612;23.066;2023-05-01T10:53:51;21.35;;;19.85;;
7985;SDS011;4038;42.612;23.066;2023-05-01T10:59:02;21.95;;;20.55;;
7985;SDS011;4038;42.612;23.066;2023-05-01T11:01:34;22.58;;;21.00;;
7985;SDS011;4038;42.612;23.066;2023-05-01T11:12:49;22.23;;;20.73;;
7985;SDS011;4038;42.612;23.066;2023-05-01T11:15:29;21.85;;;20.35;;
7985;SDS011;4038;42.612;23.066;2023-05-01T11:17:57;21.80;;;20.25;;
7985;SDS011;4038;42.612;23.066;2023-05-01T11:22:49;22.38;;;20.77;;
7985;SDS011;4038;42.612;23.066;2023-05-01T11:27:48;21.75;;;20.15;;
7985;SDS011;4038;42.612;23.066;2023-05-01T11:30:16;20.58;;;19.17;;
7985;SDS011;4038;42.612;23.066;2023-05-01T11:32:42;20.58;;;19.08;;
7985;SDS011;4038;42.612;23.066;2023-05-01T11:37:51;21.45;;;19.85;;
7985;SDS011;4038;42.612;23.066;2023-05-01T11:42:48;22.38;;;20.02;;
7985;SDS011;4038;42.612;23.066;2023-05-01T11:45:14;21.65;;;19.83;;
7985;SDS011;4038;42.612;23.066;2023-05-01T11:47:40;21.25;;;19.65;;
7985;SDS011;4038;42.612;23.066;2023-05-01T11:50:06;22.67;;;20.83;;
7985;SDS011;4038;42.612;23.066;2023-05-01T11:52:42;22.70;;;20.70;;
7985;SDS011;4038;42.612;23.066;2023-05-01T11:55:08;21.58;;;20.08;;
7985;SDS011;4038;42.612;23.066;2023-05-01T11:57:53;21.65;;;20.15;;
7985;SDS011;4038;42.612;23.066;2023-05-01T12:00:28;21.77;;;20.20;;
7985;SDS011;4038;42.612;23.066;2023-05-01T12:02:55;20.17;;;18.83;;
7985;SDS011;4038;42.612;23.066;2023-05-01T12:05:30;21.15;;;19.70;;
7985;SDS011;4038;42.612;23.066;2023-05-01T12:08:24;20.63;;;19.00;;
7985;SDS011;4038;42.612;23.066;2023-05-01T12:10:51;22.13;;;20.63;;
7985;SDS011;4038;42.612;23.066;2023-05-01T12:13:20;21.73;;;20.00;;
7985;SDS011;4038;42.612;23.066;2023-05-01T12:15:52;21.73;;;19.98;;
7985;SDS011;4038;42.612;23.066;2023-05-01T12:18:21;23.52;;;21.08;;
7985;SDS011;4038;42.612;23.066;2023-05-01T12:20:48;21.77;;;20.17;;
7985;SDS011;4038;42.612;23.066;2023-05-01T12:23:18;21.90;;;20.20;;
7985;SDS011;4038;42.612;23.066;2023-05-01T12:25:57;21.35;;;19.85;;
7985;SDS011;4038;42.612;23.066;2023-05-01T12:28:22;21.20;;;19.70;;
7985;SDS011;4038;42.612;23.066;2023-05-01T12:30:48;22.00;;;20.30;;
7985;SDS011;4038;42.612;23.066;2023-05-01T12:33:15;21.25;;;19.85;;
7985;SDS011;4038;42.612;23.066;2023-05-01T12:36:07;21.88;;;20.27;;
7985;SDS011;4038;42.612;23.066;2023-05-01T12:38:37;20.35;;;18.95;;
7985;SDS011;4038;42.612;23.066;2023-05-01T12:41:02;21.40;;;19.90;;
7985;SDS011;4038;42.612;23.066;2023-05-01T12:43:34;21.17;;;19.75;;
7985;SDS011;4038;42.612;23.066;2023-05-01T12:46:02;21.73;;;20.27;;
7985;SDS011;4038;42.612;23.066;2023-05-01T12:48:29;21.75;;;20.15;;
7985;SDS011;4038;42.612;23.066;2023-05-01T12:51:03;21.38;;;19.65;;
7985;SDS011;4038;42.612;23.066;2023-05-01T12:53:28;21.20;;;19.80;;
7985;SDS011;4038;42.612;23.066;2023-05-01T12:55:55;22.10;;;20.52;;
7985;SDS011;4038;42.612;23.066;2023-05-01T12:58:34;21.30;;;19.70;;
7985;SDS011;4038;42.612;23.066;2023-05-01T13:01:03;20.52;;;19.23;;
7985;SDS011;4038;42.612;23.066;2023-05-01T13:03:29;21.85;;;19.98;;
7985;SDS011;4038;42.612;23.066;2023-05-01T13:06:01;21.25;;;19.48;;
7985;SDS011;4038;42.612;23.066;2023-05-01T13:10:59;21.52;;;19.92;;
7985;SDS011;4038;42.612;23.066;2023-05-01T13:13:29;21.88;;;20.23;;
7985;SDS011;4038;42.612;23.066;2023-05-01T13:16:02;21.38;;;19.88;;
7985;SDS011;4038;42.612;23.066;2023-05-01T13:18:29;20.90;;;19.40;;
7985;SDS011;4038;42.612;23.066;2023-05-01T13:21:08;21.77;;;20.05;;
7985;SDS011;4038;42.612;23.066;2023-05-01T13:23:35;21.08;;;19.45;;
7985;SDS011;4038;42.612;23.066;2023-05-01T13:26:02;21.48;;;20.02;;
7985;SDS011;4038;42.612;23.066;2023-05-01T13:28:29;21.10;;;19.60;;
7985;SDS011;4038;42.612;23.066;2023-05-01T13:30:56;24.48;;;22.55;;
7985;SDS011;4038;42.612;23.066;2023-05-01T13:33:24;21.40;;;20.02;;
7985;SDS011;4038;42.612;23.066;2023-05-01T13:35:51;21.17;;;19.77;;
7985;SDS011;4038;42.612;23.066;2023-05-01T13:38:16;20.60;;;19.10;;
7985;SDS011;4038;42.612;23.066;2023-05-01T13:40:47;21.00;;;19.60;;
7985;SDS011;4038;42.612;23.066;2023-05-01T13:43:13;20.35;;;18.95;;
7985;SDS011;4038;42.612;23.066;2023-05-01T13:45:44;21.10;;;19.73;;
7985;SDS011;4038;42.612;23.066;2023-05-01T13:48:11;19.95;;;18.65;;
7985;SDS011;4038;42.612;23.066;2023-05-01T13:50:57;20.25;;;18.85;;
7985;SDS011;4038;42.612;23.066;2023-05-01T13:53:23;20.13;;;18.73;;
7985;SDS011;4038;42.612;23.066;2023-05-01T13:55:51;20.27;;;18.88;;
7985;SDS011;4038;42.612;23.066;2023-05-01T13:58:17;20.67;;;19.17;;
7985;SDS011;4038;42.612;23.066;2023-05-01T14:00:43;21.50;;;20.10;;
7985;SDS011;4038;42.612;23.066;2023-05-01T14:03:12;20.85;;;19.52;;
7985;SDS011;4038;42.612;23.066;2023-05-01T14:05:42;20.40;;;18.90;;
7985;SDS011;4038;42.612;23.066;2023-05-01T14:08:08;20.98;;;19.58;;
7985;SDS011;4038;42.612;23.066;2023-05-01T14:10:34;21.17;;;19.70;;
7985;SDS011;4038;42.612;23.066;2023-05-01T14:13:00;20.13;;;18.83;;
7985;SDS011;4038;42.612;23.066;2023-05-01T14:15:29;20.90;;;19.50;;
7985;SDS011;4038;42.612;23.066;2023-05-01T14:18:07;19.60;;;18.30;;
7985;SDS011;4038;42.612;23.066;2023-05-01T14:20:42;20.15;;;18.85;;
7985;SDS011;4038;42.612;23.066;2023-05-01T14:23:10;21.10;;;19.60;;
7985;SDS011;4038;42.612;23.066;2023-05-01T14:25:38;21.00;;;19.40;;
7985;SDS011;4038;42.612;23.066;2023-05-01T14:28:08;20.90;;;19.60;;
7985;SDS011;4038;42.612;23.066;2023-05-01T14:30:34;20.60;;;19.15;;
7985;SDS011;4038;42.612;23.066;2023-05-01T14:33:07;20.60;;;19.20;;
7985;SDS011;4038;42.612;23.066;2023-05-01T14:35:35;20.27;;;18.88;;
7985;SDS011;4038;42.612;23.066;2023-05-01T14:40:48;21.10;;;19.80;;
7985;SDS011;4038;42.612;23.066;2023-05-01T14:43:18;20.30;;;19.00;;
7985;SDS011;4038;42.612;23.066;2023-05-01T14:45:50;20.60;;;19.27;;
7985;SDS011;4038;42.612;23.066;2023-05-01T14:48:23;20.15;;;18.83;;
7985;SDS011;4038;42.612;23.066;2023-05-01T14:50:59;21.30;;;19.90;;
7985;SDS011;4038;42.612;23.066;2023-05-01T14:53:30;20.65;;;19.30;;
7985;SDS011;4038;42.612;23.066;2023-05-01T14:56:07;20.52;;;19.23;;
7985;SDS011;4038;42.612;23.066;2023-05-01T14:58:36;20.23;;;18.90;;
7985;SDS011;4038;42.612;23.066;2023-05-01T15:01:01;20.55;;;19.25;;
7985;SDS011;4038;42.612;23.066;2023-05-01T15:03:27;21.63;;;20.17;;
7985;SDS011;4038;42.612;23.066;2023-05-01T15:05:53;20.83;;;19.52;;
7985;SDS011;4038;42.612;23.066;2023-05-01T15:08:24;20.85;;;19.55;;
7985;SDS011;4038;42.612;23.066;2023-05-01T15:10:54;20.70;;;19.08;;
7985;SDS011;4038;42.612;23.066;2023-05-01T15:13:19;20.88;;;19.05;;
7985;SDS011;4038;42.612;23.066;2023-05-01T15:15:45;19.80;;;18.40;;
7985;SDS011;4038;42.612;23.066;2023-05-01T15:18:13;20.77;;;19.38;;
7985;SDS011;4038;42.612;23.066;2023-05-01T15:20:46;20.90;;;19.60;;
7985;SDS011;4038;42.612;23.066;2023-05-01T15:23:14;19.75;;;18.45;;
7985;SDS011;4038;42.612;23.066;2023-05-01T15:25:42;21.52;;;19.92;;
7985;SDS011;4038;42.612;23.066;2023-05-01T15:28:14;20.85;;;19.45;;
7985;SDS011;4038;42.612;23.066;2023-05-01T15:30:45;21.58;;;20.08;;
7985;SDS011;4038;42.612;23.066;2023-05-01T15:33:15;21.75;;;20.35;;